AirNav   Air Wisconsin Up To $57,000 Bonus
 
 1382 users online  

78MU Stony Branch Airport
Jasper, Missouri, USA

GOING TO JASPER?


FAA INFORMATION EFFECTIVE 01 DECEMBER 2022

Location

FAA Identifier: 78MU
Lat/Long: 37-17-47.1940N 094-11-42.7960W
37-17.786567N 094-11.713267W
37.2964428,-94.1952211
(estimated)
Elevation: 1025 ft. / 312 m (estimated)
Variation: 04E (1995)
From city: 6 miles SE of JASPER, MO
Time zone: UTC -6 (UTC -5 during Daylight Saving Time)
Zip code: 64755

Airport Operations

Airport use: Private use. Permission required prior to landing
Activation date: 05/1995
Control tower: no
ARTCC: KANSAS CITY CENTER
FSS: COLUMBIA FLIGHT SERVICE STATION
Attendance: UNATNDD
Segmented circle: no

Airport Communications

WX ASOS at JLN (17 nm SW): PHONE 417-623-8892

Airport Services

Runway Information

Runway 18/36

Dimensions: 2400 x 120 ft. / 732 x 37 m
Surface: turf
RUNWAY 18  RUNWAY 36
Traffic pattern: leftleft
Obstructions: none34 ft. pline, marked, 240 ft. from runway

Airport Ownership and Management from official FAA records

Ownership: Privately-owned
Owner: BOB AND DANIEL BAYS
17355 COUNTY RD 80
JASPER, MO 64755
Phone 417-437-0538
Manager: DANIEL BAYS
17355 COUNTY RD 80
JASPER, MO 64755
Phone 417-437-0538
PILOTS: BOB BAYS & DAN BAYS 17355 CO RD 80 JASPER, MO 64755 417-437-0538

Airport Operational Statistics

Aircraft based on the field: 1
Single engine airplanes: 1
    

Additional Remarks

FOR CD CTC KANSAS CITY ARTCC AT 913-254-8508.

Instrument Procedures

There are no published instrument procedures at 78MU.

Some nearby airports with instrument procedures:

KLLU - Lamar Municipal Airport (13 nm NW)
KJLN - Joplin Regional Airport (17 nm SW)
KHFJ - Monett Regional Airport (25 nm S)
KPTS - Atkinson Municipal Airport (27 nm W)
MO3 - Stockton Municipal Airport (28 nm NE)
 
Loc | Ops | Rwys | IFR | FBO | Links
Com | Nav | Svcs | Stats | Notes
Area around 78MU (Stony Branch Airport)
 
Road maps at: MapQuest Bing Google
 
Aerial photo
No photo
 
Sectional chart

 
Airport distance calculator
Flying to Stony Branch Airport? Find the distance to fly.

From to 78MU

Sunrise and sunset
Times for 02-Dec-2022
 Local
(UTC-6)
 Zulu
(UTC)
Morning civil twilight06:4512:45
Sunrise07:1413:14
Sunset16:5822:58
Evening civil twilight17:2723:27

Current date and time
Zulu (UTC)  02-Dec-2022 16:12:25
Local (UTC-6)  02-Dec-2022 10:12:25
 
METAR
KJLN 
17nm SW 
021553Z 19021G28KT 10SM OVC017 11/06 A2992 RMK AO2 PK WND 19035/1533 SLP130 T01060061
KHFJ 
25nm S 
021555Z AUTO 19017G26KT 10SM OVC016 11/07 A2996 RMK AO2
KPTS 
27nm W 
021555Z AUTO 19018G27KT 10SM OVC018 10/07 A2987 RMK AO2 T00990065 PWINO
TAF
KJLN 
17nm SW 
021120Z 0212/0312 19023G33KT P6SM BKN022 WS020/22055KT FM021800 20024G41KT P6SM BKN016 WS020/22060KT FM030000 24024G32KT P6SM BKN026 FM030600 25023KT P6SM SCT250
NOTAMs
Click for the latest NOTAMs
NOTAMs are issued by the DoD/FAA and will open in a separate window not controlled by AirNav.

 

 
 

Would you like to see your business listed on this page?

 If your business provides an interesting product or service to pilots, flight crews, aircraft, or users of the Stony Branch Airport, you should consider listing it here.  To start the listing process, click on the button below
 
Add a business
 

Other Pages about Stony Branch Airport

Update a link
 
Copyright © AirNav, LLC. All rights reserved. Privacy Policy  Contact